sensor_id;sensor_type;location;lat;lon;timestamp;P1;durP1;ratioP1;P2;durP2;ratioP2
20146;SDS011;10234;50.856;15.716;2022-11-21T00:00:24;42.17;;;19.00;;
20146;SDS011;10234;50.856;15.716;2022-11-21T00:02:53;37.97;;;18.33;;
20146;SDS011;10234;50.856;15.716;2022-11-21T00:05:22;42.70;;;20.05;;
20146;SDS011;10234;50.856;15.716;2022-11-21T00:07:49;37.13;;;16.98;;
20146;SDS011;10234;50.856;15.716;2022-11-21T00:10:16;33.80;;;17.55;;
20146;SDS011;10234;50.856;15.716;2022-11-21T00:12:43;36.15;;;18.00;;
20146;SDS011;10234;50.856;15.716;2022-11-21T00:15:11;38.78;;;18.27;;
20146;SDS011;10234;50.856;15.716;2022-11-21T00:17:37;38.33;;;18.10;;
20146;SDS011;10234;50.856;15.716;2022-11-21T00:20:07;44.38;;;19.10;;
20146;SDS011;10234;50.856;15.716;2022-11-21T00:22:34;43.67;;;19.90;;
20146;SDS011;10234;50.856;15.716;2022-11-21T00:25:01;39.38;;;18.95;;
20146;SDS011;10234;50.856;15.716;2022-11-21T00:27:27;39.75;;;21.08;;
20146;SDS011;10234;50.856;15.716;2022-11-21T00:29:54;43.20;;;20.55;;
20146;SDS011;10234;50.856;15.716;2022-11-21T00:32:21;38.05;;;19.92;;
20146;SDS011;10234;50.856;15.716;2022-11-21T00:34:48;41.47;;;19.13;;
20146;SDS011;10234;50.856;15.716;2022-11-21T00:37:16;39.92;;;20.10;;
20146;SDS011;10234;50.856;15.716;2022-11-21T00:39:43;43.22;;;22.10;;
20146;SDS011;10234;50.856;15.716;2022-11-21T00:42:10;46.15;;;22.42;;
20146;SDS011;10234;50.856;15.716;2022-11-21T00:44:37;45.28;;;22.63;;
20146;SDS011;10234;50.856;15.716;2022-11-21T00:47:04;45.95;;;21.90;;
20146;SDS011;10234;50.856;15.716;2022-11-21T00:49:31;45.97;;;21.90;;
20146;SDS011;10234;50.856;15.716;2022-11-21T00:51:57;43.97;;;22.83;;
20146;SDS011;10234;50.856;15.716;2022-11-21T00:54:25;50.20;;;21.90;;
20146;SDS011;10234;50.856;15.716;2022-11-21T00:56:53;41.95;;;19.75;;
20146;SDS011;10234;50.856;15.716;2022-11-21T00:59:19;40.50;;;19.55;;
20146;SDS011;10234;50.856;15.716;2022-11-21T01:01:46;40.22;;;18.65;;
20146;SDS011;10234;50.856;15.716;2022-11-21T01:04:13;41.25;;;19.98;;
20146;SDS011;10234;50.856;15.716;2022-11-21T01:06:40;38.50;;;19.83;;
20146;SDS011;10234;50.856;15.716;2022-11-21T01:09:06;36.67;;;19.52;;
20146;SDS011;10234;50.856;15.716;2022-11-21T01:11:35;40.30;;;20.48;;
20146;SDS011;10234;50.856;15.716;2022-11-21T01:14:02;39.67;;;19.73;;
20146;SDS011;10234;50.856;15.716;2022-11-21T01:16:29;41.20;;;19.10;;
20146;SDS011;10234;50.856;15.716;2022-11-21T01:18:56;43.45;;;20.17;;
20146;SDS011;10234;50.856;15.716;2022-11-21T01:21:23;40.72;;;20.00;;
20146;SDS011;10234;50.856;15.716;2022-11-21T01:23:51;41.15;;;20.58;;
20146;SDS011;10234;50.856;15.716;2022-11-21T01:26:19;38.05;;;19.20;;
20146;SDS011;10234;50.856;15.716;2022-11-21T01:28:49;38.60;;;20.20;;
20146;SDS011;10234;50.856;15.716;2022-11-21T01:31:17;44.08;;;21.30;;
20146;SDS011;10234;50.856;15.716;2022-11-21T01:33:45;37.30;;;19.35;;
20146;SDS011;10234;50.856;15.716;2022-11-21T01:36:13;37.45;;;18.92;;
20146;SDS011;10234;50.856;15.716;2022-11-21T01:38:42;32.17;;;16.52;;
20146;SDS011;10234;50.856;15.716;2022-11-21T01:41:10;33.58;;;16.70;;
20146;SDS011;10234;50.856;15.716;2022-11-21T01:43:39;33.28;;;15.82;;
20146;SDS011;10234;50.856;15.716;2022-11-21T01:46:11;34.53;;;15.65;;
20146;SDS011;10234;50.856;15.716;2022-11-21T01:48:41;33.42;;;15.95;;
20146;SDS011;10234;50.856;15.716;2022-11-21T01:51:14;28.60;;;14.20;;
20146;SDS011;10234;50.856;15.716;2022-11-21T01:53:47;31.75;;;15.77;;
20146;SDS011;10234;50.856;15.716;2022-11-21T01:56:19;28.38;;;13.20;;
20146;SDS011;10234;50.856;15.716;2022-11-21T01:58:47;28.27;;;14.45;;
20146;SDS011;10234;50.856;15.716;2022-11-21T02:01:19;25.38;;;12.85;;
20146;SDS011;10234;50.856;15.716;2022-11-21T02:03:46;31.25;;;13.10;;
20146;SDS011;10234;50.856;15.716;2022-11-21T02:06:14;26.38;;;13.52;;
20146;SDS011;10234;50.856;15.716;2022-11-21T02:08:41;29.60;;;12.38;;
20146;SDS011;10234;50.856;15.716;2022-11-21T02:11:11;19.73;;;10.88;;
20146;SDS011;10234;50.856;15.716;2022-11-21T02:13:44;18.02;;;9.13;;
20146;SDS011;10234;50.856;15.716;2022-11-21T02:16:11;18.13;;;9.77;;
20146;SDS011;10234;50.856;15.716;2022-11-21T02:18:39;15.02;;;8.35;;
20146;SDS011;10234;50.856;15.716;2022-11-21T02:21:09;11.98;;;7.55;;
20146;SDS011;10234;50.856;15.716;2022-11-21T02:23:47;10.85;;;7.10;;
20146;SDS011;10234;50.856;15.716;2022-11-21T02:26:24;11.13;;;7.10;;
20146;SDS011;10234;50.856;15.716;2022-11-21T02:28:51;11.55;;;7.10;;
20146;SDS011;10234;50.856;15.716;2022-11-21T02:31:18;10.88;;;6.05;;
20146;SDS011;10234;50.856;15.716;2022-11-21T02:33:46;6.85;;;4.63;;
20146;SDS011;10234;50.856;15.716;2022-11-21T02:39:03;8.65;;;5.78;;
20146;SDS011;10234;50.856;15.716;2022-11-21T02:41:33;8.52;;;5.47;;
20146;SDS011;10234;50.856;15.716;2022-11-21T02:44:03;12.57;;;6.85;;
20146;SDS011;10234;50.856;15.716;2022-11-21T02:46:34;10.60;;;7.05;;
20146;SDS011;10234;50.856;15.716;2022-11-21T02:49:02;12.50;;;7.55;;
20146;SDS011;10234;50.856;15.716;2022-11-21T02:51:33;10.93;;;7.40;;
20146;SDS011;10234;50.856;15.716;2022-11-21T02:53:59;14.85;;;6.63;;
20146;SDS011;10234;50.856;15.716;2022-11-21T02:56:26;10.93;;;5.95;;
20146;SDS011;10234;50.856;15.716;2022-11-21T02:58:54;9.60;;;6.28;;
20146;SDS011;10234;50.856;15.716;2022-11-21T03:01:21;11.82;;;6.75;;
20146;SDS011;10234;50.856;15.716;2022-11-21T03:03:48;11.18;;;7.20;;
20146;SDS011;10234;50.856;15.716;2022-11-21T03:06:15;11.07;;;6.65;;
20146;SDS011;10234;50.856;15.716;2022-11-21T03:08:44;13.43;;;6.28;;
20146;SDS011;10234;50.856;15.716;2022-11-21T03:11:13;12.00;;;6.70;;
20146;SDS011;10234;50.856;15.716;2022-11-21T03:13:40;7.80;;;5.32;;
20146;SDS011;10234;50.856;15.716;2022-11-21T03:16:08;9.93;;;5.60;;
20146;SDS011;10234;50.856;15.716;2022-11-21T03:18:35;8.75;;;5.30;;
20146;SDS011;10234;50.856;15.716;2022-11-21T03:21:02;9.75;;;5.68;;
20146;SDS011;10234;50.856;15.716;2022-11-21T03:23:29;7.78;;;5.40;;
20146;SDS011;10234;50.856;15.716;2022-11-21T03:25:57;11.18;;;5.85;;
20146;SDS011;10234;50.856;15.716;2022-11-21T03:28:24;10.30;;;6.43;;
20146;SDS011;10234;50.856;15.716;2022-11-21T03:30:50;11.32;;;6.35;;
20146;SDS011;10234;50.856;15.716;2022-11-21T03:33:19;11.88;;;6.63;;
20146;SDS011;10234;50.856;15.716;2022-11-21T03:35:46;13.10;;;7.00;;
20146;SDS011;10234;50.856;15.716;2022-11-21T03:38:13;14.45;;;7.70;;
20146;SDS011;10234;50.856;15.716;2022-11-21T03:40:40;14.30;;;7.50;;
20146;SDS011;10234;50.856;15.716;2022-11-21T03:43:07;12.40;;;6.97;;
20146;SDS011;10234;50.856;15.716;2022-11-21T03:45:34;13.48;;;7.35;;
20146;SDS011;10234;50.856;15.716;2022-11-21T03:48:01;9.75;;;6.55;;
20146;SDS011;10234;50.856;15.716;2022-11-21T03:50:30;12.05;;;6.55;;
20146;SDS011;10234;50.856;15.716;2022-11-21T03:52:56;10.68;;;6.75;;
20146;SDS011;10234;50.856;15.716;2022-11-21T03:55:23;10.45;;;6.80;;
20146;SDS011;10234;50.856;15.716;2022-11-21T03:57:50;10.95;;;6.40;;
20146;SDS011;10234;50.856;15.716;2022-11-21T04:00:18;15.35;;;6.55;;
20146;SDS011;10234;50.856;15.716;2022-11-21T04:02:44;11.05;;;6.07;;
20146;SDS011;10234;50.856;15.716;2022-11-21T04:05:11;10.57;;;6.43;;
20146;SDS011;10234;50.856;15.716;2022-11-21T04:07:39;10.65;;;6.88;;
20146;SDS011;10234;50.856;15.716;2022-11-21T04:10:07;10.80;;;6.50;;
20146;SDS011;10234;50.856;15.716;2022-11-21T04:12:34;10.13;;;6.68;;
20146;SDS011;10234;50.856;15.716;2022-11-21T04:15:01;10.75;;;6.15;;
20146;SDS011;10234;50.856;15.716;2022-11-21T04:17:28;10.50;;;6.28;;
20146;SDS011;10234;50.856;15.716;2022-11-21T04:19:55;12.65;;;7.18;;
20146;SDS011;10234;50.856;15.716;2022-11-21T04:22:23;10.45;;;5.93;;
20146;SDS011;10234;50.856;15.716;2022-11-21T04:24:51;11.38;;;6.32;;
20146;SDS011;10234;50.856;15.716;2022-11-21T04:27:18;9.70;;;6.32;;
20146;SDS011;10234;50.856;15.716;2022-11-21T04:29:45;7.75;;;4.07;;
20146;SDS011;10234;50.856;15.716;2022-11-21T04:32:12;4.60;;;3.83;;
20146;SDS011;10234;50.856;15.716;2022-11-21T04:34:39;4.82;;;3.00;;
20146;SDS011;10234;50.856;15.716;2022-11-21T04:37:06;3.90;;;2.22;;
20146;SDS011;10234;50.856;15.716;2022-11-21T04:39:33;1.95;;;1.70;;
20146;SDS011;10234;50.856;15.716;2022-11-21T04:42:01;3.53;;;1.80;;
20146;SDS011;10234;50.856;15.716;2022-11-21T04:44:28;1.88;;;1.60;;
20146;SDS011;10234;50.856;15.716;2022-11-21T04:46:55;2.80;;;1.50;;
20146;SDS011;10234;50.856;15.716;2022-11-21T04:49:24;1.92;;;1.20;;
20146;SDS011;10234;50.856;15.716;2022-11-21T04:51:51;2.25;;;1.20;;
20146;SDS011;10234;50.856;15.716;2022-11-21T04:54:18;2.00;;;1.55;;
20146;SDS011;10234;50.856;15.716;2022-11-21T04:56:45;1.52;;;1.38;;
20146;SDS011;10234;50.856;15.716;2022-11-21T04:59:13;2.13;;;1.60;;
20146;SDS011;10234;50.856;15.716;2022-11-21T05:01:39;8.50;;;1.67;;
20146;SDS011;10234;50.856;15.716;2022-11-21T05:04:06;1.63;;;1.52;;
20146;SDS011;10234;50.856;15.716;2022-11-21T05:06:33;1.75;;;1.40;;
20146;SDS011;10234;50.856;15.716;2022-11-21T05:09:00;0.95;;;0.95;;
20146;SDS011;10234;50.856;15.716;2022-11-21T05:11:27;1.20;;;0.90;;
20146;SDS011;10234;50.856;15.716;2022-11-21T05:14:13;2.47;;;0.95;;
20146;SDS011;10234;50.856;15.716;2022-11-21T05:16:39;1.25;;;1.10;;
20146;SDS011;10234;50.856;15.716;2022-11-21T05:19:07;1.08;;;0.90;;
20146;SDS011;10234;50.856;15.716;2022-11-21T05:21:34;1.40;;;1.05;;
20146;SDS011;10234;50.856;15.716;2022-11-21T05:24:01;1.45;;;1.00;;
20146;SDS011;10234;50.856;15.716;2022-11-21T05:26:27;0.80;;;0.80;;
20146;SDS011;10234;50.856;15.716;2022-11-21T05:28:54;3.15;;;0.70;;
20146;SDS011;10234;50.856;15.716;2022-11-21T05:31:22;1.60;;;0.70;;
20146;SDS011;10234;50.856;15.716;2022-11-21T05:33:49;0.80;;;0.80;;
20146;SDS011;10234;50.856;15.716;2022-11-21T05:36:16;0.80;;;0.77;;
20146;SDS011;10234;50.856;15.716;2022-11-21T05:38:43;0.77;;;0.70;;
20146;SDS011;10234;50.856;15.716;2022-11-21T05:41:10;0.95;;;0.90;;
20146;SDS011;10234;50.856;15.716;2022-11-21T05:43:37;0.70;;;0.52;;
20146;SDS011;10234;50.856;15.716;2022-11-21T05:46:13;1.05;;;0.80;;
20146;SDS011;10234;50.856;15.716;2022-11-21T05:48:42;1.48;;;0.63;;
20146;SDS011;10234;50.856;15.716;2022-11-21T05:51:09;0.65;;;0.65;;
20146;SDS011;10234;50.856;15.716;2022-11-21T05:53:36;0.55;;;0.50;;
20146;SDS011;10234;50.856;15.716;2022-11-21T05:56:04;1.15;;;0.70;;
20146;SDS011;10234;50.856;15.716;2022-11-21T05:58:32;0.75;;;0.70;;
20146;SDS011;10234;50.856;15.716;2022-11-21T06:01:00;1.03;;;0.70;;
20146;SDS011;10234;50.856;15.716;2022-11-21T06:03:28;0.77;;;0.60;;
20146;SDS011;10234;50.856;15.716;2022-11-21T06:06:02;0.70;;;0.70;;
20146;SDS011;10234;50.856;15.716;2022-11-21T06:08:30;0.70;;;0.70;;
20146;SDS011;10234;50.856;15.716;2022-11-21T06:10:58;0.80;;;0.80;;
20146;SDS011;10234;50.856;15.716;2022-11-21T06:13:25;1.00;;;0.70;;
20146;SDS011;10234;50.856;15.716;2022-11-21T06:15:53;0.70;;;0.70;;
20146;SDS011;10234;50.856;15.716;2022-11-21T06:18:24;0.60;;;0.60;;
20146;SDS011;10234;50.856;15.716;2022-11-21T06:20:51;0.60;;;0.60;;
20146;SDS011;10234;50.856;15.716;2022-11-21T06:23:19;0.60;;;0.60;;
20146;SDS011;10234;50.856;15.716;2022-11-21T06:25:46;0.50;;;0.50;;
20146;SDS011;10234;50.856;15.716;2022-11-21T06:28:13;0.63;;;0.63;;
20146;SDS011;10234;50.856;15.716;2022-11-21T06:30:40;0.60;;;0.60;;
20146;SDS011;10234;50.856;15.716;2022-11-21T06:33:07;0.52;;;0.52;;
20146;SDS011;10234;50.856;15.716;2022-11-21T06:35:36;0.50;;;0.50;;
20146;SDS011;10234;50.856;15.716;2022-11-21T06:38:04;0.73;;;0.50;;
20146;SDS011;10234;50.856;15.716;2022-11-21T06:40:32;0.50;;;0.50;;
20146;SDS011;10234;50.856;15.716;2022-11-21T06:42:59;0.43;;;0.40;;
20146;SDS011;10234;50.856;15.716;2022-11-21T06:45:26;0.52;;;0.50;;
20146;SDS011;10234;50.856;15.716;2022-11-21T06:47:53;0.70;;;0.70;;
20146;SDS011;10234;50.856;15.716;2022-11-21T06:50:20;0.70;;;0.50;;
20146;SDS011;10234;50.856;15.716;2022-11-21T06:52:47;0.50;;;0.50;;
20146;SDS011;10234;50.856;15.716;2022-11-21T06:55:13;0.60;;;0.60;;
20146;SDS011;10234;50.856;15.716;2022-11-21T06:57:42;0.70;;;0.45;;
20146;SDS011;10234;50.856;15.716;2022-11-21T07:00:09;1.95;;;0.60;;
20146;SDS011;10234;50.856;15.716;2022-11-21T07:02:37;0.40;;;0.38;;
20146;SDS011;10234;50.856;15.716;2022-11-21T07:05:04;0.50;;;0.50;;
20146;SDS011;10234;50.856;15.716;2022-11-21T07:07:31;0.43;;;0.30;;
20146;SDS011;10234;50.856;15.716;2022-11-21T07:09:58;0.30;;;0.30;;
20146;SDS011;10234;50.856;15.716;2022-11-21T07:12:25;0.70;;;0.40;;
20146;SDS011;10234;50.856;15.716;2022-11-21T07:15:11;0.40;;;0.40;;
20146;SDS011;10234;50.856;15.716;2022-11-21T07:17:38;0.60;;;0.60;;
20146;SDS011;10234;50.856;15.716;2022-11-21T07:20:05;0.75;;;0.60;;
20146;SDS011;10234;50.856;15.716;2022-11-21T07:22:32;0.45;;;0.45;;
20146;SDS011;10234;50.856;15.716;2022-11-21T07:24:59;0.38;;;0.38;;
20146;SDS011;10234;50.856;15.716;2022-11-21T07:27:26;3.38;;;1.10;;
20146;SDS011;10234;50.856;15.716;2022-11-21T07:29:53;1.50;;;0.50;;
20146;SDS011;10234;50.856;15.716;2022-11-21T07:32:24;0.73;;;0.50;;
20146;SDS011;10234;50.856;15.716;2022-11-21T07:34:51;0.57;;;0.55;;
20146;SDS011;10234;50.856;15.716;2022-11-21T07:37:19;0.55;;;0.50;;
20146;SDS011;10234;50.856;15.716;2022-11-21T07:39:46;0.73;;;0.60;;
20146;SDS011;10234;50.856;15.716;2022-11-21T07:42:12;0.40;;;0.40;;
20146;SDS011;10234;50.856;15.716;2022-11-21T07:44:39;0.40;;;0.38;;
20146;SDS011;10234;50.856;15.716;2022-11-21T07:47:06;1.13;;;0.52;;
20146;SDS011;10234;50.856;15.716;2022-11-21T07:49:35;0.70;;;0.70;;
20146;SDS011;10234;50.856;15.716;2022-11-21T07:52:02;0.70;;;0.50;;
20146;SDS011;10234;50.856;15.716;2022-11-21T07:54:29;0.50;;;0.50;;
20146;SDS011;10234;50.856;15.716;2022-11-21T07:56:56;0.60;;;0.60;;
20146;SDS011;10234;50.856;15.716;2022-11-21T07:59:23;0.85;;;0.80;;
20146;SDS011;10234;50.856;15.716;2022-11-21T08:01:50;0.60;;;0.60;;
20146;SDS011;10234;50.856;15.716;2022-11-21T08:04:18;1.60;;;1.00;;
20146;SDS011;10234;50.856;15.716;2022-11-21T08:06:46;1.75;;;1.35;;
20146;SDS011;10234;50.856;15.716;2022-11-21T08:09:13;1.88;;;1.52;;
20146;SDS011;10234;50.856;15.716;2022-11-21T08:11:40;1.50;;;1.38;;
20146;SDS011;10234;50.856;15.716;2022-11-21T08:14:07;1.35;;;1.17;;
20146;SDS011;10234;50.856;15.716;2022-11-21T08:16:34;1.20;;;1.10;;
20146;SDS011;10234;50.856;15.716;2022-11-21T08:19:01;2.17;;;1.50;;
20146;SDS011;10234;50.856;15.716;2022-11-21T08:21:29;1.95;;;1.42;;
20146;SDS011;10234;50.856;15.716;2022-11-21T08:23:58;1.25;;;1.15;;
20146;SDS011;10234;50.856;15.716;2022-11-21T08:26:24;2.45;;;1.13;;
20146;SDS011;10234;50.856;15.716;2022-11-21T08:28:51;0.73;;;0.70;;
20146;SDS011;10234;50.856;15.716;2022-11-21T08:31:19;0.88;;;0.50;;
20146;SDS011;10234;50.856;15.716;2022-11-21T08:33:46;1.33;;;1.08;;
20146;SDS011;10234;50.856;15.716;2022-11-21T08:36:12;0.93;;;0.80;;
20146;SDS011;10234;50.856;15.716;2022-11-21T08:38:40;3.83;;;1.70;;
20146;SDS011;10234;50.856;15.716;2022-11-21T08:41:09;6.80;;;5.20;;
20146;SDS011;10234;50.856;15.716;2022-11-21T08:43:54;12.75;;;7.00;;
20146;SDS011;10234;50.856;15.716;2022-11-21T08:46:21;15.32;;;9.88;;
20146;SDS011;10234;50.856;15.716;2022-11-21T08:48:51;9.05;;;5.68;;
20146;SDS011;10234;50.856;15.716;2022-11-21T08:51:18;3.70;;;2.20;;
20146;SDS011;10234;50.856;15.716;2022-11-21T08:53:45;2.10;;;1.40;;
20146;SDS011;10234;50.856;15.716;2022-11-21T08:56:14;4.13;;;2.53;;
20146;SDS011;10234;50.856;15.716;2022-11-21T08:58:41;3.78;;;2.10;;
20146;SDS011;10234;50.856;15.716;2022-11-21T09:01:08;4.68;;;3.30;;
20146;SDS011;10234;50.856;15.716;2022-11-21T09:03:35;5.63;;;3.63;;
20146;SDS011;10234;50.856;15.716;2022-11-21T09:06:02;4.45;;;3.28;;
20146;SDS011;10234;50.856;15.716;2022-11-21T09:08:29;2.97;;;2.53;;
20146;SDS011;10234;50.856;15.716;2022-11-21T09:10:56;4.80;;;2.50;;
20146;SDS011;10234;50.856;15.716;2022-11-21T09:13:25;7.35;;;5.15;;
20146;SDS011;10234;50.856;15.716;2022-11-21T09:15:52;5.13;;;3.85;;
20146;SDS011;10234;50.856;15.716;2022-11-21T09:18:37;6.60;;;4.65;;
20146;SDS011;10234;50.856;15.716;2022-11-21T09:21:04;4.93;;;4.22;;
20146;SDS011;10234;50.856;15.716;2022-11-21T09:23:31;4.75;;;3.28;;
20146;SDS011;10234;50.856;15.716;2022-11-21T09:25:58;3.22;;;2.75;;
20146;SDS011;10234;50.856;15.716;2022-11-21T09:28:27;4.15;;;2.75;;
20146;SDS011;10234;50.856;15.716;2022-11-21T09:30:54;3.42;;;2.30;;
20146;SDS011;10234;50.856;15.716;2022-11-21T09:33:21;2.70;;;2.25;;
20146;SDS011;10234;50.856;15.716;2022-11-21T09:35:48;4.35;;;3.20;;
20146;SDS011;10234;50.856;15.716;2022-11-21T09:38:15;2.25;;;1.50;;
20146;SDS011;10234;50.856;15.716;2022-11-21T09:40:43;1.65;;;1.30;;
20146;SDS011;10234;50.856;15.716;2022-11-21T09:46:09;1.42;;;1.20;;
20146;SDS011;10234;50.856;15.716;2022-11-21T09:48:41;0.90;;;0.85;;
20146;SDS011;10234;50.856;15.716;2022-11-21T09:51:14;3.92;;;1.55;;
20146;SDS011;10234;50.856;15.716;2022-11-21T09:53:46;1.13;;;1.02;;
20146;SDS011;10234;50.856;15.716;2022-11-21T09:56:18;1.58;;;0.90;;
20146;SDS011;10234;50.856;15.716;2022-11-21T09:58:50;1.40;;;1.00;;
20146;SDS011;10234;50.856;15.716;2022-11-21T10:01:31;2.33;;;1.00;;
20146;SDS011;10234;50.856;15.716;2022-11-21T10:06:52;1.27;;;0.90;;
20146;SDS011;10234;50.856;15.716;2022-11-21T10:09:28;1.00;;;0.90;;
20146;SDS011;10234;50.856;15.716;2022-11-21T10:12:07;1.38;;;1.10;;
20146;SDS011;10234;50.856;15.716;2022-11-21T10:15:02;1.80;;;1.20;;
20146;SDS011;10234;50.856;15.716;2022-11-21T10:17:35;1.20;;;1.10;;
20146;SDS011;10234;50.856;15.716;2022-11-21T10:20:16;1.85;;;1.10;;
20146;SDS011;10234;50.856;15.716;2022-11-21T10:22:57;1.27;;;1.17;;
20146;SDS011;10234;50.856;15.716;2022-11-21T10:25:38;2.53;;;1.80;;
20146;SDS011;10234;50.856;15.716;2022-11-21T10:28:06;3.35;;;2.28;;
20146;SDS011;10234;50.856;15.716;2022-11-21T10:30:41;1.90;;;1.70;;
20146;SDS011;10234;50.856;15.716;2022-11-21T10:33:11;2.30;;;1.80;;
20146;SDS011;10234;50.856;15.716;2022-11-21T10:35:41;2.47;;;1.63;;
20146;SDS011;10234;50.856;15.716;2022-11-21T10:38:13;2.83;;;1.88;;
20146;SDS011;10234;50.856;15.716;2022-11-21T10:40:46;3.08;;;2.22;;
20146;SDS011;10234;50.856;15.716;2022-11-21T10:43:21;1.55;;;1.42;;
20146;SDS011;10234;50.856;15.716;2022-11-21T10:46:15;1.75;;;1.50;;
20146;SDS011;10234;50.856;15.716;2022-11-21T10:48:45;1.90;;;1.70;;
20146;SDS011;10234;50.856;15.716;2022-11-21T10:51:23;3.13;;;2.08;;
20146;SDS011;10234;50.856;15.716;2022-11-21T10:54:03;2.80;;;1.92;;
20146;SDS011;10234;50.856;15.716;2022-11-21T10:56:48;2.10;;;1.90;;
20146;SDS011;10234;50.856;15.716;2022-11-21T10:59:19;2.33;;;2.10;;
20146;SDS011;10234;50.856;15.716;2022-11-21T11:01:57;2.50;;;2.28;;
20146;SDS011;10234;50.856;15.716;2022-11-21T11:04:25;2.25;;;2.03;;
20146;SDS011;10234;50.856;15.716;2022-11-21T11:06:53;2.40;;;2.15;;
20146;SDS011;10234;50.856;15.716;2022-11-21T11:09:24;2.25;;;1.90;;
20146;SDS011;10234;50.856;15.716;2022-11-21T11:11:55;2.10;;;2.00;;
20146;SDS011;10234;50.856;15.716;2022-11-21T11:14:48;2.30;;;1.75;;
20146;SDS011;10234;50.856;15.716;2022-11-21T11:17:26;2.90;;;1.63;;
20146;SDS011;10234;50.856;15.716;2022-11-21T11:20:01;2.33;;;1.83;;
20146;SDS011;10234;50.856;15.716;2022-11-21T11:22:31;2.47;;;2.17;;
20146;SDS011;10234;50.856;15.716;2022-11-21T11:24:58;3.40;;;2.40;;
20146;SDS011;10234;50.856;15.716;2022-11-21T11:27:30;2.10;;;1.85;;
20146;SDS011;10234;50.856;15.716;2022-11-21T11:29:57;3.55;;;2.35;;
20146;SDS011;10234;50.856;15.716;2022-11-21T11:32:34;3.17;;;2.80;;
20146;SDS011;10234;50.856;15.716;2022-11-21T11:35:06;4.38;;;3.13;;
20146;SDS011;10234;50.856;15.716;2022-11-21T11:37:46;4.78;;;3.08;;
20146;SDS011;10234;50.856;15.716;2022-11-21T11:40:24;4.75;;;3.05;;
20146;SDS011;10234;50.856;15.716;2022-11-21T11:43:10;3.58;;;3.22;;
20146;SDS011;10234;50.856;15.716;2022-11-21T11:46:26;4.10;;;3.38;;
20146;SDS011;10234;50.856;15.716;2022-11-21T11:49:26;3.78;;;3.28;;
20146;SDS011;10234;50.856;15.716;2022-11-21T11:52:21;3.00;;;2.67;;
20146;SDS011;10234;50.856;15.716;2022-11-21T11:54:51;3.10;;;2.80;;
20146;SDS011;10234;50.856;15.716;2022-11-21T11:57:23;4.72;;;4.25;;
20146;SDS011;10234;50.856;15.716;2022-11-21T11:59:53;6.07;;;4.97;;
20146;SDS011;10234;50.856;15.716;2022-11-21T12:02:32;3.25;;;2.92;;
20146;SDS011;10234;50.856;15.716;2022-11-21T12:05:11;8.07;;;5.93;;
20146;SDS011;10234;50.856;15.716;2022-11-21T12:07:47;4.75;;;4.35;;
20146;SDS011;10234;50.856;15.716;2022-11-21T12:10:22;4.35;;;3.95;;
20146;SDS011;10234;50.856;15.716;2022-11-21T12:12:55;2.47;;;2.28;;
20146;SDS011;10234;50.856;15.716;2022-11-21T12:15:29;5.25;;;4.75;;
20146;SDS011;10234;50.856;15.716;2022-11-21T12:18:15;35.78;;;24.73;;
20146;SDS011;10234;50.856;15.716;2022-11-21T12:20:52;14.65;;;10.73;;
20146;SDS011;10234;50.856;15.716;2022-11-21T12:23:22;8.38;;;7.57;;
20146;SDS011;10234;50.856;15.716;2022-11-21T12:25:55;5.72;;;5.00;;
20146;SDS011;10234;50.856;15.716;2022-11-21T12:28:33;4.20;;;3.80;;
20146;SDS011;10234;50.856;15.716;2022-11-21T12:31:08;5.60;;;4.70;;
20146;SDS011;10234;50.856;15.716;2022-11-21T12:33:42;4.95;;;4.45;;
20146;SDS011;10234;50.856;15.716;2022-11-21T12:36:21;7.53;;;5.50;;
20146;SDS011;10234;50.856;15.716;2022-11-21T12:39:04;6.05;;;5.38;;
20146;SDS011;10234;50.856;15.716;2022-11-21T12:41:47;7.05;;;5.78;;
20146;SDS011;10234;50.856;15.716;2022-11-21T12:44:44;6.68;;;5.50;;
20146;SDS011;10234;50.856;15.716;2022-11-21T12:47:30;13.68;;;8.98;;
20146;SDS011;10234;50.856;15.716;2022-11-21T12:50:33;13.15;;;8.93;;
20146;SDS011;10234;50.856;15.716;2022-11-21T12:53:26;9.73;;;7.35;;
20146;SDS011;10234;50.856;15.716;2022-11-21T12:56:18;8.98;;;6.93;;
20146;SDS011;10234;50.856;15.716;2022-11-21T12:58:54;7.82;;;6.55;;
20146;SDS011;10234;50.856;15.716;2022-11-21T13:01:24;8.77;;;6.93;;
20146;SDS011;10234;50.856;15.716;2022-11-21T13:03:58;6.97;;;6.28;;
20146;SDS011;10234;50.856;15.716;2022-11-21T13:06:27;7.22;;;6.03;;
20146;SDS011;10234;50.856;15.716;2022-11-21T13:08:59;6.75;;;5.15;;
20146;SDS011;10234;50.856;15.716;2022-11-21T13:11:36;7.00;;;5.70;;
20146;SDS011;10234;50.856;15.716;2022-11-21T13:14:29;14.82;;;9.75;;
20146;SDS011;10234;50.856;15.716;2022-11-21T13:19:54;170.88;;;55.88;;
20146;SDS011;10234;50.856;15.716;2022-11-21T13:25:35;18.50;;;11.88;;
20146;SDS011;10234;50.856;15.716;2022-11-21T13:33:56;18.60;;;13.30;;
20146;SDS011;10234;50.856;15.716;2022-11-21T13:36:34;10.23;;;6.25;;
20146;SDS011;10234;50.856;15.716;2022-11-21T13:42:09;9.68;;;7.60;;
20146;SDS011;10234;50.856;15.716;2022-11-21T13:44:54;9.52;;;7.10;;
20146;SDS011;10234;50.856;15.716;2022-11-21T13:53:48;11.38;;;8.50;;
20146;SDS011;10234;50.856;15.716;2022-11-21T13:56:35;10.10;;;7.63;;
20146;SDS011;10234;50.856;15.716;2022-11-21T13:59:16;8.65;;;7.72;;
20146;SDS011;10234;50.856;15.716;2022-11-21T14:02:07;10.05;;;8.48;;
20146;SDS011;10234;50.856;15.716;2022-11-21T14:04:52;8.60;;;6.82;;
20146;SDS011;10234;50.856;15.716;2022-11-21T14:07:30;8.38;;;6.40;;
20146;SDS011;10234;50.856;15.716;2022-11-21T14:09:58;10.60;;;7.55;;
20146;SDS011;10234;50.856;15.716;2022-11-21T14:12:27;11.88;;;6.93;;
20146;SDS011;10234;50.856;15.716;2022-11-21T14:15:10;11.88;;;7.88;;
20146;SDS011;10234;50.856;15.716;2022-11-21T14:17:45;10.25;;;6.53;;
20146;SDS011;10234;50.856;15.716;2022-11-21T14:20:16;11.23;;;7.72;;
20146;SDS011;10234;50.856;15.716;2022-11-21T14:22:51;11.23;;;7.22;;
20146;SDS011;10234;50.856;15.716;2022-11-21T14:25:22;12.88;;;8.85;;
20146;SDS011;10234;50.856;15.716;2022-11-21T14:27:59;14.88;;;8.45;;
20146;SDS011;10234;50.856;15.716;2022-11-21T14:30:31;17.38;;;13.52;;
20146;SDS011;10234;50.856;15.716;2022-11-21T14:35:46;11.27;;;8.30;;
20146;SDS011;10234;50.856;15.716;2022-11-21T14:38:13;9.00;;;6.70;;
20146;SDS011;10234;50.856;15.716;2022-11-21T14:40:40;8.95;;;6.47;;
20146;SDS011;10234;50.856;15.716;2022-11-21T14:43:20;11.27;;;7.35;;
20146;SDS011;10234;50.856;15.716;2022-11-21T14:45:55;9.75;;;6.78;;
20146;SDS011;10234;50.856;15.716;2022-11-21T14:48:25;12.65;;;7.18;;
20146;SDS011;10234;50.856;15.716;2022-11-21T14:50:54;11.23;;;7.65;;
20146;SDS011;10234;50.856;15.716;2022-11-21T14:53:22;7.82;;;5.78;;
20146;SDS011;10234;50.856;15.716;2022-11-21T14:55:50;5.10;;;4.60;;
20146;SDS011;10234;50.856;15.716;2022-11-21T14:58:17;6.63;;;5.53;;
20146;SDS011;10234;50.856;15.716;2022-11-21T15:01:03;13.30;;;10.10;;
20146;SDS011;10234;50.856;15.716;2022-11-21T15:03:31;52.60;;;23.58;;
20146;SDS011;10234;50.856;15.716;2022-11-21T15:05:59;35.78;;;16.73;;
20146;SDS011;10234;50.856;15.716;2022-11-21T15:08:26;17.95;;;12.07;;
20146;SDS011;10234;50.856;15.716;2022-11-21T15:10:53;14.50;;;8.68;;
20146;SDS011;10234;50.856;15.716;2022-11-21T15:13:23;8.55;;;5.78;;
20146;SDS011;10234;50.856;15.716;2022-11-21T15:15:54;9.20;;;6.80;;
20146;SDS011;10234;50.856;15.716;2022-11-21T15:18:26;9.38;;;6.78;;
20146;SDS011;10234;50.856;15.716;2022-11-21T15:20:56;8.57;;;6.60;;